Tug Reinauer Twins — WDF8591 — position and weather

sailwx.info

Track history (hours):
 
Tides and Currents Weather Stations Pressure Air Temp Water Temp Dewpoint Dewpoint Depression Visibility Wind Speed Wind Dir Waves Ship Positions

Tug Reinauer Twins

Owner: Reinauer Transportation Co., LLC, Staten Island, NY. More information available from US FCC via Universal Licensing System and Coast Guard Vessel Documentation Center.

Last reported at 2018-Apr-22 06:37 UTC. Time now 2018-Apr-26 11:26 UTC.
Position N 28°55' W 094°02'.

Length 150 m; draft 6.2 m.

Type: . MMSI: 367496470.

Date/timePositionNaut miles runAvg speedWind from/ knotsBaromVisibWave heightAir tempDewpointWater temp
2018-Apr-22 06:37N 28°55' W 094°02'1 8.1
2018-Apr-22 06:30N 28°56' W 094°03'9 8.7
2018-Apr-22 05:26N 29°01' W 094°12'7 8.8
2018-Apr-22 04:40N 29°05' W 094°18'2 8.9
2018-Apr-22 04:26N 29°06' W 094°20'10 8.3
2018-Apr-22 03:12N 29°12' W 094°30'4 9.0
2018-Apr-22 02:47N 29°14' W 094°33'3 9.0
2018-Apr-22 02:25N 29°16' W 094°36'5 9.3
2018-Apr-22 01:55N 29°20' W 094°40'6 9.6
2018-Apr-22 01:18N 29°21' W 094°46'7 0.6
2018-Apr-21 12:26N 29°27' W 094°51'4 9.0
2018-Apr-21 12:00N 29°31' W 094°53'5 9.2
2018-Apr-21 11:30N 29°34' W 094°56'5 9.4
2018-Apr-21 11:00N 29°39' W 094°58'4 8.7
2018-Apr-21 10:31N 29°42' W 095°01'4 7.3
2018-Apr-21 10:00N 29°45' W 095°04'3 5.2
2018-Apr-21 09:31N 29°44' W 095°07'6 5.8
2018-Apr-21 08:29N 29°44' W 095°13'1 0.0
2018-Apr-19 13:31N 29°43' W 095°14'0 0.4
2018-Apr-19 13:17N 29°43' W 095°14'4 5.7
2018-Apr-19 12:40N 29°45' W 095°11'1 7.5
2018-Apr-19 12:30N 29°44' W 095°09'4 7.1
2018-Apr-19 11:57N 29°46' W 095°05'4 9.0
2018-Apr-19 11:30N 29°44' W 095°01'4 8.8
2018-Apr-19 11:00N 29°40' W 094°58'510.4
2018-Apr-19 10:30N 29°35' W 094°56'510.7
2018-Apr-19 10:00N 29°31' W 094°53'18 8.5
2018-Apr-19 07:50N 29°19' W 094°37'3 8.5
2018-Apr-19 07:30N 29°17' W 094°34'5 9.5
2018-Apr-19 07:00N 29°14' W 094°30'4 7.7
2018-Apr-19 06:30N 29°12' W 094°26'4 8.1
2018-Apr-19 06:00N 29°10' W 094°22'  
2018-Apr-14 22:50N 25°23' W 080°02'3 7.6
2018-Apr-14 22:30N 25°25' W 080°02'4 7.5
2018-Apr-14 22:00N 25°29' W 080°02'4 7.3
2018-Apr-14 21:30N 25°33' W 080°02'4 7.6
2018-Apr-14 21:00N 25°36' W 080°02'4 7.9
2018-Apr-14 20:30N 25°40' W 080°02'4 7.9
2018-Apr-14 20:00N 25°44' W 080°02'4 8.9
2018-Apr-14 19:30N 25°49' W 080°02'5 9.1
2018-Apr-14 19:00N 25°53' W 080°02'5 9.2
2018-Apr-14 18:30N 25°58' W 080°01'5 9.3
2018-Apr-14 18:00N 26°03' W 080°02'5 9.8
2018-Apr-14 17:30N 26°07' W 080°01'5 9.3
2018-Apr-14 17:00N 26°12' W 080°01'5 9.2
2018-Apr-14 16:30N 26°17' W 080°01'5 9.3
2018-Apr-14 16:00N 26°21' W 080°01'5 9.2
2018-Apr-14 15:30N 26°26' W 080°00'4 8.8
2018-Apr-14 15:00N 26°30' W 080°00'5 9.3
2018-Apr-14 14:25N 26°36' W 079°60'13 8.7
2018-Apr-14 12:59N 26°48' W 079°59'4 7.9
2018-Apr-14 12:29N 26°52' W 080°00'4 8.0
2018-Apr-14 12:00N 26°56' W 080°00'4 8.7
2018-Apr-14 11:30N 27°00' W 080°01'4 8.1
2018-Apr-14 11:00N 27°04' W 080°01'  
Track history (hours):
 
Tides and Currents Weather Stations Pressure Air Temp Water Temp Dewpoint Dewpoint Depression Visibility Wind Speed Wind Dir Waves Ship Positions

Tug Reinauer Twins

Owner: Reinauer Transportation Co., LLC, Staten Island, NY. More information available from US FCC via Universal Licensing System and Coast Guard Vessel Documentation Center.

Last reported at 2018-Apr-22 06:37 UTC. Time now 2018-Apr-26 11:26 UTC.
Position N 28°55' W 094°02'.

Length 150 m; draft 6.2 m.

Type: . MMSI: 367496470.

Date/timePositionNaut miles runAvg speedWind from/ knotsBaromVisibWave heightAir tempDewpointWater temp
2018-Apr-22 06:37N 28°55' W 094°02'1 8.1
2018-Apr-22 06:30N 28°56' W 094°03'9 8.7
2018-Apr-22 05:26N 29°01' W 094°12'7 8.8
2018-Apr-22 04:40N 29°05' W 094°18'2 8.9
2018-Apr-22 04:26N 29°06' W 094°20'10 8.3
2018-Apr-22 03:12N 29°12' W 094°30'4 9.0
2018-Apr-22 02:47N 29°14' W 094°33'3 9.0
2018-Apr-22 02:25N 29°16' W 094°36'5 9.3
2018-Apr-22 01:55N 29°20' W 094°40'6 9.6
2018-Apr-22 01:18N 29°21' W 094°46'7 0.6
2018-Apr-21 12:26N 29°27' W 094°51'4 9.0
2018-Apr-21 12:00N 29°31' W 094°53'5 9.2
2018-Apr-21 11:30N 29°34' W 094°56'5 9.4
2018-Apr-21 11:00N 29°39' W 094°58'4 8.7
2018-Apr-21 10:31N 29°42' W 095°01'4 7.3
2018-Apr-21 10:00N 29°45' W 095°04'3 5.2
2018-Apr-21 09:31N 29°44' W 095°07'6 5.8
2018-Apr-21 08:29N 29°44' W 095°13'1 0.0
2018-Apr-19 13:31N 29°43' W 095°14'0 0.4
2018-Apr-19 13:17N 29°43' W 095°14'4 5.7
2018-Apr-19 12:40N 29°45' W 095°11'1 7.5
2018-Apr-19 12:30N 29°44' W 095°09'4 7.1
2018-Apr-19 11:57N 29°46' W 095°05'4 9.0
2018-Apr-19 11:30N 29°44' W 095°01'4 8.8
2018-Apr-19 11:00N 29°40' W 094°58'510.4
2018-Apr-19 10:30N 29°35' W 094°56'510.7
2018-Apr-19 10:00N 29°31' W 094°53'18 8.5
2018-Apr-19 07:50N 29°19' W 094°37'3 8.5
2018-Apr-19 07:30N 29°17' W 094°34'5 9.5
2018-Apr-19 07:00N 29°14' W 094°30'4 7.7
2018-Apr-19 06:30N 29°12' W 094°26'4 8.1
2018-Apr-19 06:00N 29°10' W 094°22'  
2018-Apr-14 22:50N 25°23' W 080°02'3 7.6
2018-Apr-14 22:30N 25°25' W 080°02'4 7.5
2018-Apr-14 22:00N 25°29' W 080°02'4 7.3
2018-Apr-14 21:30N 25°33' W 080°02'4 7.6
2018-Apr-14 21:00N 25°36' W 080°02'4 7.9
2018-Apr-14 20:30N 25°40' W 080°02'4 7.9
2018-Apr-14 20:00N 25°44' W 080°02'4 8.9
2018-Apr-14 19:30N 25°49' W 080°02'5 9.1
2018-Apr-14 19:00N 25°53' W 080°02'5 9.2
2018-Apr-14 18:30N 25°58' W 080°01'5 9.3
2018-Apr-14 18:00N 26°03' W 080°02'5 9.8
2018-Apr-14 17:30N 26°07' W 080°01'5 9.3
2018-Apr-14 17:00N 26°12' W 080°01'5 9.2
2018-Apr-14 16:30N 26°17' W 080°01'5 9.3
2018-Apr-14 16:00N 26°21' W 080°01'5 9.2
2018-Apr-14 15:30N 26°26' W 080°00'4 8.8
2018-Apr-14 15:00N 26°30' W 080°00'5 9.3
2018-Apr-14 14:25N 26°36' W 079°60'13 8.7
2018-Apr-14 12:59N 26°48' W 079°59'4 7.9
2018-Apr-14 12:29N 26°52' W 080°00'4 8.0
2018-Apr-14 12:00N 26°56' W 080°00'4 8.7
2018-Apr-14 11:30N 27°00' W 080°01'4 8.1
2018-Apr-14 11:00N 27°04' W 080°01'  

Dump ship's entire track history